TW-0022 weather

Taichung Veterans’ General Hospital Helipad
Taichung, Taichung (city), Taiwan

Public forecast

Using degrees Celsius for public forecast. Weather courtesy of forecast.io.

METAR (pilot weather report)

Closest report is Taichung Ching Chuang Kang Airport, 4.9 nm (9.1 km) NNE. Retrieved 2019/07/22 08:30 UTC (17 minutes ago):

RCMQ 220830Z 25011KT 9999 -SHRA SCT010 BKN030 BKN060 28/23 Q1007 NOSIG RMK A2974

TAF (pilot weather forecast)

Closest forecast is Taichung Ching Chuang Kang Airport, 4.9 nm (9.1 km) NNE. Retrieved 2019/07/22 06:21 UTC (2 hours ago):

TAF RCMQ 220500Z 2206/2306 24010KT 9999 FEW012 BKN025 BKN080 TX31/2306Z TN25/2221Z TEMPO 2207/2212 8000 -RA FEW012 BKN016 BKN040 BECMG 2213/2216 FEW012 SCT060 TEMPO 2218/2223 FEW012 BKN100 BECMG 2302/2305 FEW012 BKN050